TimePDT,TemperatureF,Dew PointF,Humidity,Sea Level PressureIn,VisibilityMPH,Wind Direction,Wind SpeedMPH,Gust SpeedMPH,PrecipitationIn,Events,Conditions,WindDirDegrees,DateUTC
12:53 AM,41.0,26.1,55,30.07,10.0,SSW,3.5,-,N/A,,Clear,200,2013-08-02 07:53:00
1:53 AM,37.9,26.1,62,30.06,10.0,South,3.5,-,N/A,,Clear,180,2013-08-02 08:53:00
2:53 AM,36.0,25.0,64,30.06,10.0,South,5.8,-,N/A,,Clear,180,2013-08-02 09:53:00
3:53 AM,35.1,24.1,64,30.05,10.0,Calm,Calm,-,N/A,,Clear,0,2013-08-02 10:53:00
4:53 AM,34.0,23.0,64,30.05,10.0,SSW,3.5,-,N/A,,Clear,200,2013-08-02 11:53:00
5:53 AM,33.1,23.0,66,30.06,10.0,Calm,Calm,-,N/A,,Clear,0,2013-08-02 12:53:00
6:53 AM,33.1,23.0,66,30.08,10.0,South,3.5,-,N/A,,Clear,190,2013-08-02 13:53:00
7:53 AM,45.0,24.1,44,30.06,10.0,Calm,Calm,-,N/A,,Clear,0,2013-08-02 14:53:00
8:53 AM,57.9,21.0,24,30.04,10.0,Calm,Calm,-,N/A,,Clear,0,2013-08-02 15:53:00
9:53 AM,64.9,28.9,26,30.03,10.0,NNE,8.1,-,N/A,,Clear,30,2013-08-02 16:53:00
10:53 AM,69.1,28.0,22,30.02,10.0,NE,8.1,-,N/A,,Clear,40,2013-08-02 17:53:00
11:53 AM,71.1,27.0,19,30.02,10.0,Variable,3.5,-,N/A,,Clear,0,2013-08-02 18:53:00
12:53 PM,73.0,25.0,17,30.01,10.0,NNE,11.5,-,N/A,,Clear,30,2013-08-02 19:53:00
1:53 PM,75.0,23.0,14,30.01,10.0,Variable,3.5,-,N/A,,Clear,0,2013-08-02 20:53:00
2:53 PM,75.9,17.1,11,30.01,10.0,Calm,Calm,-,N/A,,Clear,0,2013-08-02 21:53:00
3:53 PM,75.9,19.0,12,30.00,10.0,Variable,5.8,16.1,N/A,,Clear,0,2013-08-02 22:53:00
4:53 PM,75.0,21.9,14,30.00,10.0,Variable,5.8,16.1,N/A,,Clear,0,2013-08-02 23:53:00
5:53 PM,73.9,26.1,17,30.01,10.0,SW,8.1,-,N/A,,Clear,220,2013-08-03 00:53:00
6:53 PM,71.1,28.0,20,30.03,10.0,SSW,8.1,-,N/A,,Clear,200,2013-08-03 01:53:00
7:53 PM,66.0,30.0,26,30.01,10.0,Variable,4.6,-,N/A,,Clear,0,2013-08-03 02:53:00
8:53 PM,60.1,30.9,33,30.02,10.0,Calm,Calm,-,N/A,,Clear,0,2013-08-03 03:53:00
9:53 PM,57.9,32.0,37,30.02,10.0,Calm,Calm,-,N/A,,Clear,0,2013-08-03 04:53:00
10:53 PM,53.1,32.0,45,30.03,10.0,Calm,Calm,-,N/A,,Clear,0,2013-08-03 05:53:00
11:53 PM,48.9,33.1,54,30.03,10.0,Calm,Calm,-,N/A,,Clear,0,2013-08-03 06:53:00